メインページ
METAR-TAF:

METAR-TAF

空港 :

ナイロビ, ケニヤ

緯度: 01-19S, 経度: 036-49E, 海抜: 1683m

現時点の気象観測

当レポートは5時間28分前の18:00(UTC)に作成
の風 10kt
気温 17°C
湿度 88%
気圧 1021 hPa
視程10km以上
高度1900ftの千切れ雲あり

METAR: HKNW 261800Z 09010KT 9999 BKN019 17/15 Q1021

時間: 02:28 (23:28 UTC)


TAF: 見つかりません

4,000以上の空港の気象観測と天気予報(METAR報とTAF報)

利用可能な観測所は地図上に黄色い丸と赤い丸で示す。

丸の上にカーソルを重ねると観測所名を参照できる。

次にクリックすると気象観測と天気予報を参照できる。

マップの切り替え:黒色「×」印の緑ボタンをクリックして拡大、「-」印の緑ボタンをクリックして縮小、緑色の三角印をクリックして隣りの地図に切り替え


METAR-TAF: